| time (UTC) | temp F | wind direction | speed knots | gust knots | rain 1hr in | rain 24hr in | rain mn in | humidity % | barometer mb |
| 20260508114412 | 58 | 34 | 2.6 | 6.1 | 0.00 | 0.00 | 0.00 | 24 | 1026.4 |
| 20260508112638 | 57 | 15 | 0.9 | 1.7 | 0.00 | 0.00 | 0.00 | 23 | 1026.4 |
| 20260508112636 | 57 | 15 | 0.9 | 1.7 | 0.00 | 0.00 | 0.00 | 23 | 1026.4 |
| 20260508112633 | 57 | 15 | 0.9 | 1.7 | 0.00 | 0.00 | 0.00 | 23 | 1026.4 |
| 20260508110718 | 57 | 339 | 0.9 | 2.6 | 0.00 | 0.00 | 0.00 | 22 | 1026.4 |
| 20260508104733 | 56 | 42 | 1.7 | 3.5 | 0.00 | 0.00 | 0.00 | 25 | 1026.3 |
| 20260508102813 | 56 | 349 | 1.7 | 4.3 | 0.00 | 0.00 | 0.00 | 25 | 1026.3 |
| 20260508101208 | 56 | 151 | 0.9 | 3.5 | 0.00 | 0.00 | 0.00 | 26 | 1026.3 |
| 20260508095343 | 56 | 13 | 2.6 | 7.0 | 0.00 | 0.00 | 0.00 | 28 | 1026.2 |
| 20260508093607 | 56 | 21 | 1.7 | 4.3 | 0.00 | 0.00 | 0.00 | 28 | 106.2 |
| 20260508093603 | 56 | 21 | 1.7 | 4.3 | 0.00 | 0.00 | 0.00 | 28 | 1026.2 |
| 20260508091901 | 55 | 346 | 1.7 | 3.5 | 0.00 | 0.00 | 0.00 | 29 | 1026.2 |
| 20260508091858 | 55 | 346 | 1.7 | 3.5 | 0.00 | 0.00 | 0.00 | 29 | 1026.2 |
| 20260508090018 | 52 | 18 | 1.7 | 5.2 | 0.00 | 0.00 | 0.00 | 32 | 1026.1 |
| 20260508084313 | 52 | 334 | 0.9 | 1.7 | 0.00 | 0.00 | 0.00 | 33 | 1026.1 |
| 20260508082340 | 51 | 7 | 1.7 | 3.5 | 0.00 | 0.00 | 0.00 | 34 | 1025.9 |
| 20260508080613 | 51 | 4 | 3.5 | 8.7 | 0.00 | 0.00 | 0.00 | 35 | 1026.0 |
| 20260508074618 | 50 | 26 | 3.5 | 7.8 | 0.00 | 0.00 | 0.00 | 36 | 1025.8 |
| 20260508072742 | 50 | 346 | 2.6 | 4.3 | 0.00 | 0.00 | 0.00 | 36 | 1025.8 |
| 20260508070753 | 50 | 5 | 2.6 | 4.3 | 0.00 | 0.00 | 0.00 | 40 | 1025.7 |
| 20260508064837 | 49 | 0 | 0.0 | 0.0 | 0.00 | 0.00 | 0.00 | 41 | 1025.5 |
| 20260508064833 | 49 | 0 | 3.5 | 7.0 | 0.00 | 0.00 | 0.00 | 41 | 1025.5 |
| 20260508062918 | 48 | 6 | 1.7 | 5.2 | 0.00 | 0.00 | 0.00 | 45 | 1025.3 |
| 20260508060928 | 47 | 340 | 1.7 | 4.3 | 0.00 | 0.00 | 0.00 | 47 | 1025.2 |
| 20260508055256 | 47 | 21 | 1.7 | 4.3 | 0.00 | 0.00 | 0.00 | 47 | 1025.1 |
| 20260508055253 | 47 | 21 | 1.7 | 4.3 | 0.00 | 0.00 | 0.00 | 47 | 1025.1 |
| 20260508053603 | 46 | 325 | 0.9 | 4.3 | 0.00 | 0.00 | 0.00 | 49 | 1025.0 |
| 20260508051718 | 45 | 36 | 2.6 | 7.0 | 0.00 | 0.00 | 0.00 | 50 | 1024.8 |
| 20260508050043 | 41 | 356 | 0.9 | 3.5 | 0.00 | 0.00 | 0.00 | 58 | 1024.1 |
| 20260508044238 | 40 | 331 | 1.7 | 3.5 | 0.00 | 0.00 | 0.00 | 60 | 1023.9 |
| 20260508042338 | 39 | 308 | 0.0 | 1.7 | 0.00 | 0.00 | 0.00 | 59 | 1023.8 |
| 20260508040453 | 39 | 3 | 0.9 | 2.6 | 0.00 | 0.00 | 0.00 | 60 | 1023.7 |
| 20260508034618 | 39 | 7 | 0.9 | 2.6 | 0.00 | 0.00 | 0.00 | 61 | 1023.7 |
| 20260508033018 | 39 | 5 | 0.9 | 1.7 | 0.00 | 0.00 | 0.00 | 61 | 1023.5 |
| 20260508031036 | 39 | 352 | 1.7 | 3.5 | 0.00 | 0.00 | 0.00 | 59 | 102.3 |
| 20260508031033 | 39 | 352 | 1.7 | 3.5 | 0.00 | 0.00 | 0.00 | 59 | 1023.3 |
| 20260508025330 | 39 | 335 | 0.9 | 1.7 | 0.00 | 0.00 | 0.00 | 59 | 1023.0 |
| 20260508023337 | 39 | 340 | 0.9 | 1.7 | 0.00 | 0.00 | 0.00 | 59 | 1022.8 |
| 20260508021733 | 40 | 338 | 0.9 | 3.5 | 0.00 | 0.00 | 0.00 | 58 | 1022.7 |
| 20260508015903 | 40 | 348 | 1.7 | 2.6 | 0.00 | 0.00 | 0.00 | 57 | 1022.4 |
| 20260508014144 | 41 | 340 | 0.9 | 3.5 | 0.00 | 0.00 | 0.00 | 1022.3 | |
| 20260508014138 | 41 | 340 | 0.9 | 3.5 | 0.00 | 0.00 | 0.00 | 55 | 1022.3 |
| 20260508012230 | 41 | 336 | 2.6 | 4.3 | 0.00 | 0.00 | 0.00 | 54 | 1022.0 |
| 20260508010428 | 41 | 8 | 0.9 | 2.6 | 0.00 | 0.00 | 0.00 | 53 | 1022.0 |
| 20260508004828 | 42 | 340 | 1.7 | 3.5 | 0.00 | 0.00 | 0.00 | 51 | 1021.0 |
| 20260508002858 | 43 | 15 | 2.6 | 8.7 | 0.00 | 0.00 | 0.00 | 50 | 1020.8 |
| 20260508001248 | 43 | 4 | 3.5 | 7.0 | 0.00 | 0.00 | 0.00 | 50 | 1020.8 |
| 20260507235308 | 43 | 15 | 1.7 | 3.5 | 0.00 | 0.00 | 0.00 | 49 | 1020.5 |
| 20260507233700 | 44 | 347 | 1.7 | 2.6 | 0.00 | 0.00 | 0.00 | 50 | 1020.3 |
| 20260507231818 | 44 | 355 | 1.7 | 4.3 | 0.00 | 0.00 | 0.00 | 50 | 1020.1 |
| 20260507230148 | 44 | 345 | 1.7 | 3.5 | 0.00 | 0.00 | 0.00 | 48 | 1020.0 |
| 20260507224228 | 44 | 332 | 0.9 | 1.7 | 0.00 | 0.00 | 0.00 | 46 | 1019.9 |
| 20260507222403 | 45 | 332 | 0.9 | 1.7 | 0.00 | 0.00 | 0.00 | 45 | 1019.7 |
| 20260507220613 | 45 | 327 | 0.9 | 0.9 | 0.00 | 0.00 | 0.00 | 43 | 1019.6 |
| 20260507214907 | 45 | 359 | 1.7 | 2.6 | 0.00 | 0.00 | 0.00 | 43 | 1019.4 |
| 20260507213108 | 45 | 337 | 0.9 | 2.6 | 0.00 | 0.00 | 0.00 | 41 | 1019.2 |
| 20260507211248 | 46 | 347 | 1.7 | 3.5 | 0.00 | 0.00 | 0.00 | 41 | 1019.0 |
| 20260507205441 | 46 | 309 | 0.9 | 1.7 | 0.00 | 0.00 | 0.00 | 37 | 1018.2 |
| 20260507203638 | 45 | 292 | 0.0 | 0.9 | 0.00 | 0.00 | 0.00 | 47 | 1017.9 |
| 20260507201943 | 44 | 97 | 0.0 | 0.0 | 0.00 | 0.00 | 0.00 | 51 | 1017.7 |
| 20260507200103 | 46 | 194 | 0.9 | 0.9 | 0.00 | 0.00 | 0.00 | 50 | 1017.6 |
| 20260507194253 | 47 | 68 | 0.0 | 0.9 | 0.00 | 0.00 | 0.00 | 48 | 1017.5 |
| 20260507192310 | 48 | 178 | 0.0 | 1.7 | 0.00 | 0.00 | 0.00 | 1017.3 | |
| 20260507192306 | 48 | 178 | 0.0 | 1.7 | 0.00 | 0.00 | 0.00 | 45 | 1017.3 |
| 20260507190523 | 48 | 247 | 0.9 | 2.6 | 0.00 | 0.00 | 0.00 | 44 | 1017.2 |
| 20260507184923 | 48 | 357 | 0.9 | 3.5 | 0.00 | 0.00 | 0.00 | 41 | 1017.1 |
| 20260507183013 | 49 | 139 | 0.9 | 3.5 | 0.00 | 0.00 | 0.00 | 49 | 1016.9 |
| 20260507181333 | 49 | 187 | 1.7 | 4.3 | 0.00 | 0.00 | 0.00 | 45 | 1016.9 |
| 20260507175538 | 50 | 168 | 1.7 | 4.3 | 0.00 | 0.00 | 0.00 | 48 | 1016.9 |
| 20260507173848 | 49 | 197 | 2.6 | 4.3 | 0.00 | 0.00 | 0.00 | 40 | 1016.9 |
| 20260507172225 | 49 | 198 | 0.9 | 3.5 | 0.00 | 0.00 | 0.00 | 1016.9 | |
| 20260507172218 | 49 | 198 | 0.9 | 3.5 | 0.00 | 0.00 | 0.00 | 47 | 1016.9 |
| 20260507170233 | 48 | 178 | 0.9 | 3.5 | 0.00 | 0.00 | 0.00 | 49 | 1016.7 |
| 20260507164638 | 48 | 198 | 2.6 | 7.0 | 0.00 | 0.00 | 0.00 | 49 | 1016.4 |
| 20260507164633 | 48 | 198 | 2.6 | 7.0 | 0.00 | 0.00 | 0.00 | 49 | 1016.4 |
| 20260507162813 | 48 | 194 | 3.5 | 7.0 | 0.00 | 0.00 | 0.00 | 47 | 1016.3 |
| 20260507161048 | 47 | 203 | 4.3 | 7.8 | 0.00 | 0.00 | 0.00 | 55 | 1016.3 |
| 20260507155416 | 49 | 182 | 2.6 | 7.0 | 0.00 | 0.00 | 0.00 | 45 | 1016.3 |
| 20260507155413 | 49 | 182 | 2.6 | 7.0 | 0.00 | 0.00 | 0.00 | 45 | 1016.3 |
| 20260507153743 | 48 | 185 | 2.6 | 4.3 | 0.00 | 0.00 | 0.00 | 49 | 1016.3 |
| 20260507152139 | 49 | 190 | 2.6 | 5.2 | 0.00 | 0.00 | 0.00 | 43 | 1016.3 |
| 20260507152133 | 49 | 190 | 2.6 | 5.2 | 0.00 | 0.00 | 0.00 | 43 | 1016.3 |
| 20260507150213 | 49 | 189 | 1.7 | 4.3 | 0.00 | 0.00 | 0.00 | 41 | 1016.3 |
| 20260507144243 | 49 | 197 | 3.5 | 6.1 | 0.00 | 0.00 | 0.00 | 51 | 1016.2 |
| 20260507142548 | 49 | 208 | 2.6 | 5.2 | 0.00 | 0.00 | 0.00 | 49 | 1016.1 |
| 20260507140639 | 50 | 201 | 6.1 | 7.8 | 0.00 | 0.00 | 0.00 | 41 | 1016.0 |
| 20260507140633 | 50 | 201 | 6.1 | 7.8 | 0.00 | 0.00 | 0.00 | 41 | 1016.0 |
| 20260507134708 | 52 | 166 | 1.7 | 4.3 | 0.00 | 0.00 | 0.00 | 32 | 1015.9 |
| 20260507132906 | 54 | 198 | 3.5 | 7.0 | 0.00 | 0.00 | 0.00 | 25 | 1015.9 |
| 20260507132900 | 54 | 198 | 3.5 | 7.0 | 0.00 | 0.00 | 0.00 | 25 | 1015.9 |
| 20260507131228 | 53 | 192 | 2.6 | 5.2 | 0.00 | 0.00 | 0.00 | 25 | 1015.9 |
| 20260507125428 | 51 | 158 | 1.7 | 5.2 | 0.00 | 0.00 | 0.00 | 35 | 1016.0 |
| 20260507123447 | 51 | 190 | 3.5 | 5.2 | 0.00 | 0.00 | 0.00 | 31 | 1015.9 |
| 20260507121451 | 54 | 195 | 2.6 | 6.1 | 0.00 | 0.00 | 0.00 | ||
| 20260507121448 | 54 | 195 | 2.6 | 6.1 | 0.00 | 0.00 | 0.00 | 28 | 1016.0 |